Seattle, Washington
Traffic Map
Current Weather Conditions
Seattle, Washington
Clear
Clear
64°
Feels Like: 64°
Wind Chill: 64° Ceiling: Unl
Heat Index: 64° Visibility: 10mi
Dew Point: 47° Wind: 3mph
Humidity: 54% Direction: 300° (WNW)
Pressure: 30.11in Gusts: 0mph
Raw Report DataKBFI 311253Z 30003KT 10SM CLR 18/08 A3011 RMK AO2 SLP195 T01780083
Traffic Incident Summary
Active as of:
Severity:
Category:
InformationThere was an issue retrieving the traffic information for this location. Please try a different location or try again shortly.
Advertisements
Track Severe Weather on mobile